createdAt,value
2022-12-24T00:01:06.989Z,68117.09
2022-12-24T00:03:36.209Z,68141.59
2022-12-24T00:06:08.149Z,68113.16
2022-12-24T00:08:35.898Z,68131.22
2022-12-24T00:11:03.135Z,68130.28
2022-12-24T00:13:30.333Z,68136.13
2022-12-24T00:15:57.457Z,68128.00
2022-12-24T00:18:24.901Z,68108.06
2022-12-24T00:20:52.245Z,68119.91
2022-12-24T00:23:20.550Z,68114.59
2022-12-24T00:25:48.445Z,68107.81
2022-12-24T00:28:16.847Z,68091.06
2022-12-24T00:30:44.561Z,68102.53
2022-12-24T00:33:12.085Z,68094.59
2022-12-24T00:35:40.813Z,68089.72
2022-12-24T00:38:08.627Z,68084.97
2022-12-24T00:40:36.091Z,68084.59
2022-12-24T00:43:03.689Z,68075.19
2022-12-24T00:45:31.038Z,68077.44
2022-12-24T00:47:58.783Z,68071.03
2022-12-24T00:50:25.951Z,68076.31
2022-12-24T00:52:53.115Z,68081.78
2022-12-24T00:55:20.443Z,68072.91
2022-12-24T00:57:47.757Z,68067.06
2022-12-24T01:00:17.965Z,68067.44
2022-12-24T01:02:45.604Z,68073.66
2022-12-24T01:05:13.052Z,68052.03
2022-12-24T01:07:44.109Z,68076.50
2022-12-24T01:10:14.380Z,68082.16
2022-12-24T01:12:42.144Z,68083.88
2022-12-24T01:15:10.857Z,68067.28
2022-12-24T01:17:38.323Z,68088.38
2022-12-24T01:20:07.778Z,68098.16
2022-12-24T01:22:35.440Z,68071.25
2022-12-24T01:25:02.709Z,68102.53
2022-12-24T01:27:30.239Z,68101.75
2022-12-24T01:29:57.515Z,68094.59
2022-12-24T01:32:24.784Z,68092.72
2022-12-24T01:34:51.959Z,68088.56
2022-12-24T01:37:19.462Z,68094.97
2022-12-24T01:39:46.643Z,68070.13
2022-12-24T01:42:42.684Z,68088.38
2022-12-24T01:45:41.983Z,68086.69
2022-12-24T01:48:17.696Z,68084.59
2022-12-24T01:50:46.014Z,68091.19
2022-12-24T01:53:14.692Z,68093.28
2022-12-24T01:55:43.664Z,68092.34
2022-12-24T01:58:13.718Z,68083.88
2022-12-24T02:00:40.978Z,68087.81
2022-12-24T02:03:09.154Z,68087.81
2022-12-24T02:05:47.735Z,68085.53
2022-12-24T02:08:15.531Z,68081.22
2022-12-24T02:10:43.029Z,68080.84
2022-12-24T02:13:10.939Z,68081.59
2022-12-24T02:16:00.965Z,68054.84
2022-12-24T02:18:41.418Z,68073.66
2022-12-24T02:21:35.205Z,68080.25
2022-12-24T02:24:49.728Z,68085.19
2022-12-24T02:27:35.254Z,68087.63
2022-12-24T02:30:05.470Z,68089.88
2022-12-24T02:32:51.791Z,68092.72
2022-12-24T02:35:30.755Z,68095.75
2022-12-24T02:38:08.322Z,68106.28
2022-12-24T02:40:45.191Z,68099.88
2022-12-24T02:43:20.612Z,68105.16
2022-12-24T02:45:58.957Z,68094.03
2022-12-24T02:48:30.137Z,68081.22
2022-12-24T02:51:06.959Z,68078.75
2022-12-24T02:53:35.131Z,68063.66
2022-12-24T02:56:17.495Z,68063.50
2022-12-24T02:58:50.516Z,68046.38
2022-12-24T03:01:34.182Z,68065.19
2022-12-24T03:04:39.597Z,68072.91
2022-12-24T03:07:15.427Z,68070.84
2022-12-24T03:09:57.819Z,68049.75
2022-12-24T03:12:33.547Z,68061.41
2022-12-24T03:15:02.211Z,68056.13
2022-12-24T03:17:30.638Z,68019.78
2022-12-24T03:19:57.929Z,68012.44
2022-12-24T03:22:26.545Z,68030.69
2022-12-24T03:24:53.794Z,68029.34
2022-12-24T03:27:21.567Z,68011.88
2022-12-24T03:29:48.810Z,68036.34
2022-12-24T03:32:24.263Z,68045.75
2022-12-24T03:34:51.946Z,68046.31
2022-12-24T03:37:19.500Z,68042.75
2022-12-24T03:39:46.674Z,68048.59
2022-12-24T03:42:13.859Z,68028.84
2022-12-24T03:44:41.032Z,68049.34
2022-12-24T03:47:08.277Z,68059.13
2022-12-24T03:49:35.492Z,68051.22
2022-12-24T03:52:02.904Z,68053.31
2022-12-24T03:54:30.176Z,68043.31
2022-12-24T03:56:57.545Z,68051.41
2022-12-24T03:59:24.932Z,68064.78
2022-12-24T04:01:52.239Z,68067.25
2022-12-24T04:04:19.555Z,68071.78
2022-12-24T04:06:46.660Z,68071.78
2022-12-24T04:09:13.936Z,68067.25
2022-12-24T04:11:41.119Z,68065.75
2022-12-24T04:14:20.297Z,68066.50
2022-12-24T04:16:49.601Z,68051.47
2022-12-24T04:19:16.988Z,68071.03
2022-12-24T04:21:44.153Z,68064.47
2022-12-24T04:24:11.394Z,68092.91
2022-12-24T04:26:38.535Z,68072.97
2022-12-24T04:29:05.822Z,68092.34
2022-12-24T04:31:33.084Z,68100.63
2022-12-24T04:34:00.494Z,68102.72
2022-12-24T04:36:28.008Z,68088.78
2022-12-24T04:38:55.113Z,68109.50
2022-12-24T04:41:24.891Z,68112.72
2022-12-24T04:43:54.753Z,68113.84
2022-12-24T04:46:24.816Z,68111.22
2022-12-24T04:48:54.148Z,68093.31
2022-12-24T04:51:22.316Z,68114.41
2022-12-24T04:53:50.190Z,68119.91
2022-12-24T04:56:19.195Z,68118.97
2022-12-24T04:58:46.772Z,68117.63
2022-12-24T05:01:24.028Z,68109.13
2022-12-24T05:03:52.424Z,68104.22
2022-12-24T05:06:26.342Z,68110.25
2022-12-24T05:08:55.981Z,68083.13
2022-12-24T05:11:23.225Z,68105.75
2022-12-24T05:13:50.857Z,68098.94
2022-12-24T05:16:20.863Z,68094.03
2022-12-24T05:18:48.144Z,68089.50
2022-12-24T05:21:19.012Z,68083.28
2022-12-24T05:24:05.160Z,68068.38
2022-12-24T05:26:34.684Z,68055.19
2022-12-24T05:29:06.788Z,68062.16
2022-12-24T05:31:34.500Z,68031.09
2022-12-24T05:34:02.209Z,68051.06
2022-12-24T05:36:29.875Z,68047.66
2022-12-24T05:38:57.570Z,68054.25
2022-12-24T05:41:24.936Z,68055.00
2022-12-24T05:43:52.419Z,68054.44
2022-12-24T05:46:21.449Z,68066.50
2022-12-24T05:48:49.906Z,68068.94
2022-12-24T05:51:22.361Z,68075.38
2022-12-24T05:53:51.283Z,68077.06
2022-12-24T05:56:23.020Z,68081.03
2022-12-24T05:58:52.094Z,68078.75
2022-12-24T06:01:20.569Z,68078.38
2022-12-24T06:03:49.801Z,68082.16
2022-12-24T06:06:20.825Z,68074.81
2022-12-24T06:08:49.056Z,68071.78
2022-12-24T06:11:19.453Z,68068.38
2022-12-24T06:13:46.977Z,68062.34
2022-12-24T06:16:16.432Z,68057.44
2022-12-24T06:18:44.621Z,68052.16
2022-12-24T06:21:12.500Z,68052.53
2022-12-24T06:23:40.495Z,68035.63
2022-12-24T06:26:08.842Z,68052.72
2022-12-24T06:28:38.060Z,68049.34
2022-12-24T06:31:07.280Z,68055.75
2022-12-24T06:33:34.953Z,68034.50
2022-12-24T06:36:02.174Z,68051.59
2022-12-24T06:38:32.580Z,68030.53
2022-12-24T06:40:59.929Z,68056.13
2022-12-24T06:43:27.121Z,68070.09
2022-12-24T06:45:54.407Z,68071.78
2022-12-24T06:48:22.055Z,68077.06
2022-12-24T06:50:49.253Z,68069.16
2022-12-24T06:53:16.459Z,68069.53
2022-12-24T06:55:43.872Z,68075.91
2022-12-24T06:58:11.538Z,68085.34
2022-12-24T07:00:38.844Z,68080.84
2022-12-24T07:03:06.009Z,68090.63
2022-12-24T07:05:33.234Z,68078.19
2022-12-24T07:08:00.693Z,68083.25
2022-12-24T07:10:27.860Z,68072.16
2022-12-24T07:12:55.073Z,68069.91
2022-12-24T07:15:22.235Z,68072.72
2022-12-24T07:17:49.549Z,68080.25
2022-12-24T07:20:16.836Z,68078.00
2022-12-24T07:22:44.095Z,68070.84
2022-12-24T07:25:11.713Z,68064.41
2022-12-24T07:27:39.491Z,68068.22
2022-12-24T07:30:07.262Z,68071.22
2022-12-24T07:32:34.694Z,68071.03
2022-12-24T07:35:02.132Z,68072.91
2022-12-24T07:37:29.362Z,68064.63
2022-12-24T07:39:56.561Z,68059.53
2022-12-24T07:42:23.813Z,68047.50
2022-12-24T07:44:51.158Z,68064.41
2022-12-24T07:47:18.372Z,68058.03
2022-12-24T07:49:45.520Z,68063.09
2022-12-24T07:52:12.800Z,68061.41
2022-12-24T07:54:40.071Z,68059.53
2022-12-24T07:57:07.303Z,68061.03
2022-12-24T07:59:34.596Z,68035.63
2022-12-24T08:02:02.029Z,68054.44
2022-12-24T08:04:32.669Z,68028.28
2022-12-24T08:07:00.893Z,68049.91
2022-12-24T08:09:28.385Z,68049.91
2022-12-24T08:11:56.292Z,68047.66
2022-12-24T08:14:23.563Z,68048.59
2022-12-24T08:16:50.668Z,68023.75
2022-12-24T08:19:18.063Z,68043.50
2022-12-24T08:21:45.223Z,68035.78
2022-12-24T08:24:12.489Z,68037.47
2022-12-24T08:26:39.807Z,68033.50
2022-12-24T08:29:07.364Z,68032.16
2022-12-24T08:31:37.597Z,68006.22
2022-12-24T08:34:06.911Z,68027.09
2022-12-24T08:36:35.059Z,68031.06
2022-12-24T08:39:03.790Z,68031.25
2022-12-24T08:41:32.241Z,68035.94
2022-12-24T08:43:59.654Z,68033.88
2022-12-24T08:46:27.345Z,68036.13
2022-12-24T08:48:54.616Z,68041.78
2022-12-24T08:51:21.889Z,68042.00
2022-12-24T08:53:49.237Z,68043.88
2022-12-24T08:56:16.750Z,68052.53
2022-12-24T08:58:44.015Z,68053.50
2022-12-24T09:01:21.161Z,68059.53
2022-12-24T09:03:48.679Z,68039.59
2022-12-24T09:06:16.217Z,68067.81
2022-12-24T09:08:43.988Z,68064.03
2022-12-24T09:11:15.174Z,68066.88
2022-12-24T09:13:43.242Z,68071.22
2022-12-24T09:16:11.741Z,68069.31
2022-12-24T09:18:40.061Z,68073.47
2022-12-24T09:21:17.502Z,68077.44
2022-12-24T09:23:47.151Z,68077.06
2022-12-24T09:26:20.220Z,68077.63
2022-12-24T09:28:48.113Z,68080.47
2022-12-24T09:31:17.090Z,68087.06
2022-12-24T09:33:46.560Z,68085.34
2022-12-24T09:36:14.374Z,68086.13
2022-12-24T09:38:41.530Z,68087.63
2022-12-24T09:41:34.825Z,68064.47
2022-12-24T09:44:14.526Z,68094.97
2022-12-24T09:46:45.748Z,68098.38
2022-12-24T09:49:21.936Z,68105.16
2022-12-24T09:52:05.576Z,68103.66
2022-12-24T09:54:37.587Z,68108.94
2022-12-24T09:57:13.004Z,68126.72
2022-12-24T09:59:46.576Z,68182.94
2022-12-24T10:02:18.465Z,68185.19
2022-12-24T10:04:48.971Z,68183.31
2022-12-24T10:12:12.023Z,68157.81
2022-12-24T10:14:50.985Z,68161.22
2022-12-24T10:17:40.206Z,68158.19
2022-12-24T10:20:42.240Z,68155.75
2022-12-24T10:23:12.827Z,68131.78
2022-12-24T10:26:07.501Z,68123.31
2022-12-24T10:28:46.190Z,68145.38
2022-12-24T10:31:13.987Z,68156.69
2022-12-24T10:33:43.064Z,68161.41
2022-12-24T10:36:18.433Z,68166.88
2022-12-24T10:38:46.655Z,68151.63
2022-12-24T10:41:16.240Z,68186.34
2022-12-24T10:43:46.201Z,68202.56
2022-12-24T10:46:24.198Z,68190.28
2022-12-24T10:49:30.319Z,68223.88
2022-12-24T10:52:05.008Z,68239.38
2022-12-24T10:54:39.274Z,68259.75
2022-12-24T10:57:25.190Z,68223.50
2022-12-24T10:59:56.887Z,68162.38
2022-12-24T11:02:39.498Z,68170.66
2022-12-24T11:05:28.018Z,68156.13
2022-12-24T11:08:02.657Z,68151.03
2022-12-24T11:10:31.336Z,68146.88
2022-12-24T11:13:35.041Z,68141.03
2022-12-24T11:15:51.033Z,68135.94
2022-12-24T11:18:18.537Z,68136.31
2022-12-24T11:20:52.351Z,68134.59
2022-12-24T11:23:20.982Z,68128.97
2022-12-24T11:25:50.035Z,68131.78
2022-12-24T11:28:28.276Z,68118.97
2022-12-24T11:31:18.738Z,68118.75
2022-12-24T11:33:52.718Z,68126.69
2022-12-24T11:36:26.560Z,68126.88
2022-12-24T11:38:57.215Z,68132.94
2022-12-24T11:41:26.372Z,68132.16
2022-12-24T11:44:07.986Z,68122.72
2022-12-24T11:46:41.640Z,68123.31
2022-12-24T11:49:12.293Z,68102.38
2022-12-24T11:51:41.190Z,68127.25
2022-12-24T11:54:17.137Z,68122.53
2022-12-24T11:56:52.340Z,68126.31
2022-12-24T11:59:26.775Z,68122.53
2022-12-24T12:02:10.561Z,68129.53
2022-12-24T12:04:40.836Z,68131.97
2022-12-24T12:07:18.863Z,68134.81
2022-12-24T12:09:52.031Z,68113.72
2022-12-24T12:12:24.863Z,68138.78
2022-12-24T12:14:55.967Z,68149.69
2022-12-24T12:17:45.082Z,68136.88
2022-12-24T12:20:26.136Z,68137.25
2022-12-24T12:22:56.022Z,68128.59
2022-12-24T12:25:38.501Z,68126.88
2022-12-24T12:28:12.018Z,68121.78
2022-12-24T12:30:43.365Z,68117.63
2022-12-24T12:33:41.420Z,68118.19
2022-12-24T12:36:12.807Z,68115.34
2022-12-24T12:38:40.790Z,68115.16
2022-12-24T12:41:24.142Z,68104.78
2022-12-24T12:44:03.573Z,68097.63
2022-12-24T12:47:09.002Z,68102.91
2022-12-24T12:49:55.660Z,68098.94
2022-12-24T12:52:38.079Z,68101.41
2022-12-24T12:55:24.793Z,68080.31
2022-12-24T12:57:56.406Z,68101.97
2022-12-24T13:00:23.929Z,68103.66
2022-12-24T13:02:59.622Z,68103.09
2022-12-24T13:05:48.051Z,68114.00
2022-12-24T13:08:56.808Z,68118.19
2022-12-24T13:11:42.704Z,68115.41
2022-12-24T13:14:28.452Z,68176.69
2022-12-24T13:17:14.804Z,68172.56
2022-12-24T13:19:57.049Z,68188.00
2022-12-24T13:22:24.307Z,68198.22
2022-12-24T13:24:54.268Z,68204.44
2022-12-24T13:27:27.629Z,68201.63
2022-12-24T13:29:59.979Z,68205.00
2022-12-24T13:32:46.270Z,68207.09
2022-12-24T13:35:33.519Z,68198.78
2022-12-24T13:38:29.470Z,68190.66
2022-12-24T13:41:38.212Z,68179.16
2022-12-24T13:44:06.994Z,68184.63
2022-12-24T13:46:46.113Z,68188.00
2022-12-24T13:49:33.703Z,68193.50
2022-12-24T13:52:18.719Z,68188.97
2022-12-24T13:54:49.171Z,68166.34
2022-12-24T13:57:34.577Z,68192.56
2022-12-24T14:00:23.788Z,68185.38
2022-12-24T14:02:51.068Z,68166.13
2022-12-24T14:05:23.183Z,68156.69
2022-12-24T14:07:51.590Z,68152.16
2022-12-24T14:10:33.474Z,68147.06
2022-12-24T14:13:00.892Z,68140.47
2022-12-24T14:15:50.145Z,68143.09
2022-12-24T14:18:23.732Z,68145.94
2022-12-24T14:20:54.513Z,68145.38
2022-12-24T14:23:42.800Z,68114.84
2022-12-24T14:26:16.020Z,68137.06
2022-12-24T14:28:48.406Z,68141.78
2022-12-24T14:31:18.813Z,68135.38
2022-12-24T14:33:46.783Z,68130.84
2022-12-24T14:36:15.830Z,68135.19
2022-12-24T14:38:45.247Z,68130.28
2022-12-24T14:41:40.116Z,68125.75
2022-12-24T14:44:07.382Z,68123.47
2022-12-24T14:47:06.023Z,68122.16
2022-12-24T14:49:57.807Z,68107.81
2022-12-24T14:53:04.564Z,68109.50
2022-12-24T14:55:41.745Z,68105.53
2022-12-24T14:58:31.095Z,68096.84
2022-12-24T15:01:22.828Z,68091.03
2022-12-24T15:04:16.243Z,68081.97
2022-12-24T15:06:53.249Z,68084.78
2022-12-24T15:09:23.805Z,68073.66
2022-12-24T15:11:55.332Z,68071.03
2022-12-24T15:14:39.150Z,68072.72
2022-12-24T15:17:08.462Z,68053.09
2022-12-24T15:19:44.738Z,68044.41
2022-12-24T15:22:22.992Z,68010.16
2022-12-24T15:24:50.664Z,68022.56
2022-12-24T15:27:23.845Z,68014.63
2022-12-24T15:29:53.821Z,68003.31
2022-12-24T15:32:22.063Z,67993.91
2022-12-24T15:34:55.734Z,67998.81
2022-12-24T15:37:27.039Z,67972.31
2022-12-24T15:39:56.996Z,67986.94
2022-12-24T15:42:26.206Z,67985.63
2022-12-24T15:45:00.119Z,67987.50
2022-12-24T15:47:37.839Z,67989.97
2022-12-24T15:50:43.408Z,67994.47
2022-12-24T15:53:20.104Z,67993.00
2022-12-24T15:56:07.774Z,67996.19
2022-12-24T15:58:43.421Z,67972.22
2022-12-24T16:01:13.817Z,67961.50
2022-12-24T16:04:02.969Z,67950.19
2022-12-24T16:06:54.328Z,67941.34
2022-12-24T16:09:40.555Z,67942.06
2022-12-24T16:12:34.921Z,67922.31
2022-12-24T16:15:02.237Z,67900.47
2022-12-24T16:17:34.442Z,67885.41
2022-12-24T16:20:06.729Z,67873.19
2022-12-24T16:22:36.898Z,67874.28
2022-12-24T16:25:27.957Z,67856.97
2022-12-24T16:28:00.080Z,67849.63
2022-12-24T16:30:28.149Z,67837.75
2022-12-24T16:32:55.307Z,67829.66
2022-12-24T16:35:33.338Z,67829.25
2022-12-24T16:38:00.570Z,67829.84
2022-12-24T16:40:28.403Z,67825.31
2022-12-24T16:43:17.318Z,67817.78
2022-12-24T16:45:46.568Z,67812.13
2022-12-24T16:48:23.243Z,67808.38
2022-12-24T16:50:51.911Z,67807.03
2022-12-24T16:53:21.474Z,67808.56
2022-12-24T16:55:51.165Z,67826.44
2022-12-24T16:58:20.083Z,67813.53
2022-12-24T17:00:48.323Z,67841.13
2022-12-24T17:03:15.700Z,67840.19
2022-12-24T17:05:44.251Z,67836.81
2022-12-24T17:08:12.631Z,67851.31
2022-12-24T17:10:40.971Z,67847.00
2022-12-24T17:13:08.588Z,67849.81
2022-12-24T17:15:35.867Z,67855.66
2022-12-24T17:18:03.268Z,67852.06
2022-12-24T17:20:30.470Z,67851.88
2022-12-24T17:22:58.892Z,67838.50
2022-12-24T17:25:26.102Z,67840.56
2022-12-24T17:27:53.362Z,67819.28
2022-12-24T17:30:20.715Z,67825.13
2022-12-24T17:32:47.839Z,67809.50
2022-12-24T17:35:15.437Z,67807.63
2022-12-24T17:37:42.629Z,67786.91
2022-12-24T17:40:10.444Z,67788.59
2022-12-24T17:42:37.623Z,67753.72
2022-12-24T17:45:05.634Z,67762.28
2022-12-24T17:47:32.888Z,67757.19
2022-12-24T17:50:00.170Z,67759.06
2022-12-24T17:52:27.463Z,67743.66
2022-12-24T17:54:54.995Z,67734.97
2022-12-24T17:57:22.133Z,67734.78
2022-12-24T17:59:49.438Z,67725.03
2022-12-24T18:02:16.768Z,67724.28
2022-12-24T18:04:44.121Z,67727.84
2022-12-24T18:07:11.362Z,67738.75
2022-12-24T18:09:38.578Z,67744.56
2022-12-24T18:12:06.136Z,67735.56
2022-12-24T18:14:33.385Z,67729.34
2022-12-24T18:17:00.797Z,67723.91
2022-12-24T18:19:28.030Z,67726.72
2022-12-24T18:21:55.311Z,67748.19
2022-12-24T18:24:22.683Z,67737.59
2022-12-24T18:26:50.079Z,67741.41
2022-12-24T18:29:23.869Z,67727.44
2022-12-24T18:31:53.480Z,67747.19
2022-12-24T18:34:24.398Z,67753.06
2022-12-24T18:36:57.724Z,67793.50
2022-12-24T18:39:29.463Z,67784.28
2022-12-24T18:41:56.786Z,67795.19
2022-12-24T18:44:25.665Z,67796.13
2022-12-24T18:46:53.116Z,67788.25
2022-12-24T18:49:20.370Z,67782.03
2022-12-24T18:51:47.586Z,67787.69
2022-12-24T18:54:15.186Z,67776.38
2022-12-24T18:56:42.507Z,67762.84
2022-12-24T18:59:09.881Z,67763.41
2022-12-24T19:01:37.258Z,67787.69
2022-12-24T19:04:04.609Z,67784.28
2022-12-24T19:06:31.760Z,67779.22
2022-12-24T19:09:00.827Z,67771.31
2022-12-24T19:11:31.546Z,67795.41
2022-12-24T19:13:59.654Z,67808.72
2022-12-24T19:16:27.950Z,67798.56
2022-12-24T19:18:55.289Z,67784.09
2022-12-24T19:21:22.559Z,67773.19
2022-12-24T19:23:50.081Z,67777.53
2022-12-24T19:26:19.244Z,67795.41
2022-12-24T19:28:47.209Z,67795.59
2022-12-24T19:31:15.792Z,67809.31
2022-12-24T19:33:49.708Z,67798.22
2022-12-24T19:36:20.895Z,67797.28
2022-12-24T19:38:48.291Z,67820.97
2022-12-24T19:41:18.629Z,67808.00
2022-12-24T19:43:48.855Z,67806.88
2022-12-24T19:46:19.214Z,67811.00
2022-12-24T19:48:55.705Z,67815.16
2022-12-24T19:51:24.409Z,67819.66
2022-12-24T19:53:54.472Z,67839.06
2022-12-24T19:56:23.623Z,67839.63
2022-12-24T19:58:50.932Z,67829.25
2022-12-24T20:01:21.396Z,67832.09
2022-12-24T20:03:50.443Z,67825.13
2022-12-24T20:06:19.127Z,67820.25
2022-12-24T20:08:46.372Z,67822.50
2022-12-24T20:11:15.861Z,67823.63
2022-12-24T20:13:43.781Z,67825.88
2022-12-24T20:16:12.389Z,67827.56
2022-12-24T20:18:39.974Z,67805.63
2022-12-24T20:21:09.763Z,67832.66
2022-12-24T20:23:38.481Z,67833.44
2022-12-24T20:26:06.761Z,67823.81
2022-12-24T20:28:36.789Z,67810.28
2022-12-24T20:31:17.030Z,67813.09
2022-12-24T20:33:46.034Z,67805.19
2022-12-24T20:36:16.107Z,67802.94
2022-12-24T20:38:43.944Z,67804.00
2022-12-24T20:41:13.705Z,67800.84
2022-12-24T20:43:47.850Z,67798.03
2022-12-24T20:46:22.962Z,67792.00
2022-12-24T20:48:52.250Z,67791.06
2022-12-24T20:51:24.729Z,67790.50
2022-12-24T20:53:54.294Z,67792.56
2022-12-24T20:56:22.145Z,67798.75
2022-12-24T20:58:49.511Z,67793.13
2022-12-24T21:01:19.991Z,67785.78
2022-12-24T21:03:47.524Z,67790.31
2022-12-24T21:06:17.651Z,67783.38
2022-12-24T21:08:54.790Z,67785.03
2022-12-24T21:11:41.145Z,67789.16
2022-12-24T21:14:09.152Z,67788.41
2022-12-24T21:16:37.831Z,67787.69
2022-12-24T21:19:06.207Z,67781.47
2022-12-24T21:21:34.915Z,67782.59
2022-12-24T21:24:03.993Z,67786.34
2022-12-24T21:26:32.171Z,67788.97
2022-12-24T21:29:00.024Z,67791.59
2022-12-24T21:31:28.416Z,67787.69
2022-12-24T21:33:56.154Z,67798.56
2022-12-24T21:36:24.258Z,67788.06
2022-12-24T21:38:51.500Z,67798.56
2022-12-24T21:41:22.826Z,67789.94
2022-12-24T21:43:50.617Z,67784.66
2022-12-24T21:46:19.500Z,67787.50
2022-12-24T21:49:05.406Z,67783.53
2022-12-24T21:51:33.028Z,67771.31
2022-12-24T21:54:18.759Z,67768.66
2022-12-24T21:57:04.812Z,67771.09
2022-12-24T21:59:32.020Z,67772.81
2022-12-24T22:01:59.614Z,67768.84
2022-12-24T22:04:27.807Z,67781.63
2022-12-24T22:07:13.879Z,67767.72
2022-12-24T22:09:59.688Z,67762.06
2022-12-24T22:12:30.861Z,67754.16
2022-12-24T22:14:58.228Z,67752.13
2022-12-24T22:17:26.091Z,67757.38
2022-12-24T22:19:53.941Z,67750.81
2022-12-24T22:22:21.461Z,67760.59
2022-12-24T22:24:48.787Z,67757.72
2022-12-24T22:27:15.920Z,67751.00
2022-12-24T22:29:43.048Z,67749.09
2022-12-24T22:32:10.157Z,67749.09
2022-12-24T22:34:37.335Z,67739.91
2022-12-24T22:37:04.584Z,67751.34
2022-12-24T22:39:31.874Z,67741.97
2022-12-24T22:41:58.984Z,67740.44
2022-12-24T22:44:26.129Z,67738.75
2022-12-24T22:46:53.308Z,67740.44
2022-12-24T22:49:20.476Z,67729.34
2022-12-24T22:51:47.648Z,67724.84
2022-12-24T22:54:14.924Z,67720.31
2022-12-24T22:56:42.203Z,67714.09
2022-12-24T22:59:13.352Z,67715.25
2022-12-24T23:01:43.611Z,67727.66
2022-12-24T23:04:11.636Z,67721.44
2022-12-24T23:06:39.823Z,67733.66
2022-12-24T23:09:10.588Z,67731.63
2022-12-24T23:11:39.566Z,67726.53
2022-12-24T23:14:25.522Z,67713.75
2022-12-24T23:16:52.671Z,67707.91
2022-12-24T23:19:19.827Z,67706.59
2022-12-24T23:21:46.986Z,67718.63
2022-12-24T23:24:14.481Z,67737.03
2022-12-24T23:26:41.690Z,67743.47
2022-12-24T23:29:08.933Z,67755.88
2022-12-24T23:31:37.660Z,67764.34
2022-12-24T23:34:04.952Z,67772.25
2022-12-24T23:36:32.280Z,67774.69
2022-12-24T23:38:59.627Z,67777.31
2022-12-24T23:41:26.888Z,67761.88
2022-12-24T23:43:54.020Z,67767.38
2022-12-24T23:46:21.708Z,67774.13
2022-12-24T23:48:54.008Z,67772.25
2022-12-24T23:51:24.562Z,67770.00
2022-12-24T23:53:53.796Z,67778.63
2022-12-24T23:56:22.857Z,67756.53
2022-12-24T23:58:50.495Z,67772.44
